Time;durP1;ratioP1;P1;durP2;ratioP2;P2;SDS_P1;SDS_P2;PMS_P1;PMS_P2;Temp;Humidity;BMP_temperature;BMP_pressure;BME280_temperature;BME280_humidity;BME280_pressure;Samples;Min_cycle;Max_cycle;Signal;HPM_P1;HPM_P2
2023/07/19 00:04:37;;;;;;;7.30;4.15;;;;;;;27.55;44.79;99966.84;41616962;28;20048;-81
2023/07/19 00:24:38;;;;;;;8.52;3.90;;;;;;;27.46;45.02;99928.81;41617919;28;20099;-82
2023/07/19 00:44:38;;;;;;;8.77;3.92;;;;;;;27.39;44.80;99897.75;41607713;28;20029;-82
2023/07/19 01:04:46;;;;;;;5.03;3.03;;;;;;;27.11;45.09;99882.22;41593832;28;20049;-79
2023/07/19 01:24:46;;;;;;;12.77;3.58;;;;;;;26.95;45.03;99883.06;41595499;28;20053;-81
2023/07/19 01:44:47;;;;;;;5.85;2.75;;;;;;;26.88;45.74;99898.03;41611081;28;20488;-79
2023/07/19 02:04:47;;;;;;;13.13;3.00;;;;;;;26.62;45.82;99875.97;41600757;28;20449;-82
2023/07/19 02:24:48;;;;;;;4.78;2.92;;;;;;;26.49;45.92;99896.88;41606804;28;20117;-81
2023/07/19 02:44:49;;;;;;;4.32;2.65;;;;;;;26.25;46.74;99917.09;41586996;28;20465;-81
2023/07/19 03:04:49;;;;;;;5.93;3.13;;;;;;;26.10;47.12;99900.16;41598957;28;20043;-80
2023/07/19 03:24:50;;;;;;;10.70;3.22;;;;;;;25.96;48.02;99891.81;41598178;28;20071;-84
2023/07/19 03:44:50;;;;;;;6.70;3.78;;;;;;;25.88;48.42;99911.19;41606596;28;20508;-83
2023/07/19 04:04:51;;;;;;;14.20;4.53;;;;;;;25.84;48.65;99919.63;41634973;28;20041;-81
2023/07/19 04:24:54;;;;;;;15.95;4.70;;;;;;;25.80;49.68;99935.03;41634110;28;20045;-81
2023/07/19 04:44:54;;;;;;;8.63;4.10;;;;;;;26.18;48.71;99922.25;41617873;28;20045;-85
2023/07/19 05:04:55;;;;;;;7.18;3.90;;;;;;;26.03;47.85;99923.84;41638281;28;20518;-84
2023/07/19 05:24:56;;;;;;;10.23;4.10;;;;;;;25.55;49.17;99931.47;41609852;28;20113;-86
2023/07/19 05:44:56;;;;;;;6.15;3.85;;;;;;;25.83;48.29;99929.41;41606085;28;20049;-85
2023/07/19 06:04:57;;;;;;;7.32;3.75;;;;;;;25.62;48.63;99950.22;41596558;28;20541;-86
2023/07/19 06:24:58;;;;;;;6.53;3.60;;;;;;;25.83;48.38;99941.81;41608163;28;20515;-86
2023/07/19 06:44:59;;;;;;;9.60;3.40;;;;;;;26.07;48.21;99954.38;41603279;28;20073;-87
2023/07/19 07:05:00;;;;;;;7.03;3.45;;;;;;;26.19;49.18;99923.88;41603970;28;20061;-87
2023/07/19 07:25:00;;;;;;;9.10;4.45;;;;;;;26.36;49.07;99908.00;41619146;28;20053;-87
2023/07/19 07:45:00;;;;;;;12.32;3.63;;;;;;;26.35;49.30;99930.22;41628088;28;20045;-85
2023/07/19 08:05:03;;;;;;;11.45;3.50;;;;;;;26.56;49.32;99924.41;41617224;28;20041;-87
2023/07/19 08:25:06;;;;;;;9.85;4.72;;;;;;;26.80;48.92;99893.56;41642400;28;20052;-87
2023/07/19 08:45:07;;;;;;;11.90;4.28;;;;;;;26.94;49.08;99892.88;41636949;28;20049;-90
2023/07/19 09:05:13;;;;;;;11.25;3.92;;;;;;;27.15;49.85;99912.78;41573915;28;20045;-87
2023/07/19 09:25:13;;;;;;;7.90;4.30;;;;;;;27.31;49.02;99912.72;41619037;28;20077;-83
2023/07/19 09:45:17;;;;;;;9.65;4.32;;;;;;;27.47;48.50;99890.59;41658494;28;20484;-85
2023/07/19 10:05:27;;;;;;;9.32;4.25;;;;;;;27.62;49.42;99895.19;41634554;28;20041;-82
2023/07/19 10:25:36;;;;;;;14.07;4.20;;;;;;;27.93;48.31;99860.59;41583237;28;20054;-82
2023/07/19 10:45:37;;;;;;;13.60;4.18;;;;;;;28.21;47.01;99835.28;41592163;28;20520;-86
2023/07/19 11:05:41;;;;;;;9.00;3.50;;;;;;;28.38;45.72;99794.22;41662533;28;20138;-88
2023/07/19 11:25:41;;;;;;;7.32;3.83;;;;;;;28.65;44.99;99799.94;41696927;28;20037;-83
2023/07/19 11:45:43;;;;;;;7.03;3.50;;;;;;;29.00;42.23;99794.94;41675733;28;20050;-82
2023/07/19 12:05:44;;;;;;;7.05;3.72;;;;;;;29.10;42.06;99775.97;41682372;28;20116;-81
2023/07/19 12:25:44;;;;;;;6.15;3.00;;;;;;;29.38;39.79;99749.47;41668802;28;20037;-82
2023/07/19 12:45:45;;;;;;;8.00;3.08;;;;;;;29.61;38.38;99679.06;41657678;28;20064;-83
2023/07/19 13:05:46;;;;;;;4.85;2.83;;;;;;;29.81;37.42;99679.25;41644264;28;20045;-83
2023/07/19 13:25:48;;;;;;;6.45;2.30;;;;;;;30.13;33.78;99646.84;41650494;28;20099;-84
2023/07/19 13:45:48;;;;;;;4.05;2.50;;;;;;;30.27;32.55;99584.50;41619901;28;20048;-84
2023/07/19 14:05:50;;;;;;;5.50;2.83;;;;;;;30.33;34.35;99566.84;41622668;28;20044;-88
2023/07/19 14:25:50;;;;;;;4.80;2.55;;;;;;;30.47;34.37;99562.38;41601254;28;20037;-78
2023/07/19 14:45:54;;;;;;;4.15;2.42;;;;;;;30.50;32.13;99594.06;41573856;28;20041;-78
2023/07/19 15:05:56;;;;;;;8.82;3.10;;;;;;;30.40;32.06;99602.41;41571389;28;20050;-80
2023/07/19 15:25:57;;;;;;;5.32;3.10;;;;;;;30.40;31.98;99598.94;41588616;28;20089;-82
2023/07/19 15:45:58;;;;;;;5.93;3.00;;;;;;;30.34;33.01;99598.69;41607238;28;20050;-81
2023/07/19 16:06:00;;;;;;;5.85;3.05;;;;;;;30.24;33.00;99568.06;41611861;28;20120;-83
2023/07/19 16:26:02;;;;;;;6.00;2.85;;;;;;;30.07;33.29;99549.69;41592197;28;20045;-80
2023/07/19 16:46:03;;;;;;;7.55;3.03;;;;;;;30.03;33.07;99565.28;41587489;28;20076;-81
2023/07/19 17:06:04;;;;;;;6.43;2.92;;;;;;;29.95;33.77;99559.28;41590257;28;21885;-81
2023/07/19 17:26:04;;;;;;;7.40;3.08;;;;;;;29.83;33.73;99557.13;41585946;28;20046;-81
2023/07/19 17:46:05;;;;;;;5.55;3.03;;;;;;;29.78;33.71;99524.88;41595628;28;20061;-82
2023/07/19 18:06:06;;;;;;;5.25;2.72;;;;;;;29.63;34.50;99490.31;41596761;28;20520;-82
2023/07/19 18:26:06;;;;;;;;;;;;;;;29.42;35.43;99520.56;41643893;28;20048;-82
2023/07/19 18:46:07;;;;;;;15.57;3.40;;;;;;;29.28;35.80;99532.09;41605020;28;19935;-81
2023/07/19 19:06:07;;;;;;;6.90;3.23;;;;;;;29.13;36.68;99570.34;41625116;28;20041;-82
2023/07/19 19:26:13;;;;;;;7.97;3.50;;;;;;;28.90;37.72;99584.66;41610886;28;20049;-82
2023/07/19 19:46:15;;;;;;;5.47;2.78;;;;;;;28.88;38.58;99596.53;41601448;28;20144;-81
2023/07/19 20:06:15;;;;;;;8.65;3.42;;;;;;;28.80;39.83;99586.03;41511281;28;20052;-79
2023/07/19 20:26:17;;;;;;;6.47;2.73;;;;;;;28.55;41.20;99579.16;41559796;28;20054;-81
2023/07/19 20:46:18;;;;;;;5.95;2.78;;;;;;;28.44;42.01;99571.63;41608243;28;20046;-79
2023/07/19 21:06:20;;;;;;;10.75;3.20;;;;;;;28.31;42.87;99574.13;41583011;28;20053;-80
2023/07/19 21:26:20;;;;;;;7.45;2.90;;;;;;;28.22;42.62;99603.53;41588278;28;20050;-81
2023/07/19 21:46:21;;;;;;;7.95;3.20;;;;;;;28.13;43.44;99620.59;41480493;28;20123;-81
2023/07/19 22:06:21;;;;;;;5.47;2.85;;;;;;;27.82;43.04;99608.28;41461791;28;20037;-83
2023/07/19 22:26:22;;;;;;;4.85;2.30;;;;;;;27.79;43.28;99616.59;41593038;28;20076;-82
2023/07/19 22:46:23;;;;;;;5.35;2.47;;;;;;;27.68;43.99;99604.56;41597841;28;20048;-83
2023/07/19 23:06:23;;;;;;;6.88;2.65;;;;;;;27.65;44.76;99591.66;41614660;28;20049;-85
2023/07/19 23:26:24;;;;;;;4.55;2.33;;;;;;;27.35;45.57;99604.00;41607172;28;20389;-80
2023/07/19 23:46:24;;;;;;;6.57;3.03;;;;;;;27.32;45.72;99615.84;41615195;28;20048;-83
